71.0°F
Current conditions from King Hill
Updated every 5 minutes
 
  Monday September 1, 2014

Station Historical Data
Daily Summary for December 1, 2011 Units:  English    Metric   Both
« Previous Day
Next Day »
Daily Weekly Monthly Yearly Custom
  High: Low: Average:
Temperature: 34.6 °F 24.0 °F 28.6 °F
Dew Point: 26.5 °F 18.4 °F 21.1 °F
Humidity: 86% 58% 74%
Wind Speed: 9.0mph 1.0mph 3mph
Wind Gust: 17.0mph - -
Wind- - SW
Pressure: 30.28 in 29.87 in -
Precipitation: 0.01 in    
Historical Graphs
 
 
Tabular Data for December 1, 2011
Time Temperature Dew Point Pressure Wind Wind Speed Wind Gust Humidity Daily Rainfall
00:04 32.7 °F 26.3 °F 29.87 in NW 5.0 mph 14.0 mph 77% 0.00 in
00:09 32.6 °F 26.2 °F 29.87 in NNW 6.0 mph 14.0 mph 77% 0.00 in
00:14 32.6 °F 26.2 °F 29.87 in WNW 5.0 mph 13.0 mph 77% 0.00 in
00:19 32.6 °F 26.5 °F 29.88 in NW 2.0 mph 11.0 mph 78% 0.00 in
00:24 32.5 °F 26.1 °F 29.88 in NW 5.0 mph 12.0 mph 77% 0.00 in
00:29 32.5 °F 26.1 °F 29.88 in NW 6.0 mph 12.0 mph 77% 0.00 in
00:35 32.5 °F 26.1 °F 29.89 in NW 7.0 mph 15.0 mph 77% 0.00 in
00:44 32.4 °F 26.3 °F 29.89 in NW 1.0 mph 12.0 mph 78% 0.00 in
00:49 32.3 °F 25.9 °F 29.90 in NW 7.0 mph 17.0 mph 77% 0.00 in
00:54 32.1 °F 25.7 °F 29.91 in NW 6.0 mph 17.0 mph 77% 0.00 in
00:59 32.0 °F 25.3 °F 29.91 in NW 8.0 mph 13.0 mph 76% 0.00 in
01:04 31.9 °F 25.2 °F 29.92 in NW 9.0 mph 16.0 mph 76% 0.00 in
01:09 31.7 °F 24.7 °F 29.92 in NW 7.0 mph 16.0 mph 75% 0.00 in
01:14 31.7 °F 24.7 °F 29.92 in NW 9.0 mph 16.0 mph 75% 0.00 in
01:19 31.6 °F 24.9 °F 29.92 in NW 5.0 mph 15.0 mph 76% 0.00 in
01:24 31.5 °F 24.5 °F 29.92 in NW 5.0 mph 12.0 mph 75% 0.00 in
01:29 31.3 °F 24.3 °F 29.93 in NW 7.0 mph 16.0 mph 75% 0.00 in
01:34 31.1 °F 23.8 °F 29.93 in NNW 6.0 mph 16.0 mph 74% 0.00 in
01:39 31.0 °F 24.0 °F 29.94 in NNW 3.0 mph 13.0 mph 75% 0.00 in
01:44 30.8 °F 23.2 °F 29.95 in NNW 4.0 mph 13.0 mph 73% 0.00 in
01:49 30.6 °F 23.0 °F 29.95 in NNW 4.0 mph 12.0 mph 73% 0.00 in
01:54 30.4 °F 22.5 °F 29.96 in NW 5.0 mph 12.0 mph 72% 0.00 in
01:59 30.2 °F 21.9 °F 29.96 in NW 7.0 mph 12.0 mph 71% 0.00 in
02:04 30.1 °F 21.8 °F 29.96 in NW 3.0 mph 12.0 mph 71% 0.00 in
02:09 30.1 °F 21.5 °F 29.97 in NW 6.0 mph 12.0 mph 70% 0.00 in
02:14 29.9 °F 21.3 °F 29.97 in NW 4.0 mph 16.0 mph 70% 0.00 in
02:19 29.9 °F 21.0 °F 29.97 in NW 7.0 mph 16.0 mph 69% 0.00 in
02:24 29.8 °F 21.2 °F 29.97 in NNW 3.0 mph 13.0 mph 70% 0.00 in
02:29 29.8 °F 20.9 °F 29.97 in NW 7.0 mph 13.0 mph 69% 0.00 in
02:34 29.7 °F 21.1 °F 29.98 in NW 3.0 mph 13.0 mph 70% 0.00 in
02:39 29.7 °F 20.8 °F 29.98 in NW 5.0 mph 13.0 mph 69% 0.00 in
02:44 29.6 °F 21.0 °F 29.99 in NW 4.0 mph 13.0 mph 70% 0.00 in
02:49 29.6 °F 20.7 °F 29.99 in NNW 4.0 mph 12.0 mph 69% 0.00 in
02:54 29.5 °F 20.6 °F 30.00 in NNW 6.0 mph 10.0 mph 69% 0.00 in
02:59 29.5 °F 20.6 °F 30.00 in NW 5.0 mph 11.0 mph 69% 0.00 in
03:04 29.4 °F 20.5 °F 30.00 in NW 4.0 mph 11.0 mph 69% 0.00 in
03:09 29.4 °F 20.8 °F 30.00 in NW 4.0 mph 12.0 mph 70% 0.00 in
03:14 29.3 °F 20.7 °F 30.01 in NW 6.0 mph 12.0 mph 70% 0.00 in
03:19 29.3 °F 20.7 °F 30.01 in NNW 3.0 mph 9.0 mph 70% 0.00 in
03:24 29.3 °F 20.4 °F 30.01 in NNW 4.0 mph 7.0 mph 69% 0.00 in
03:29 29.2 °F 20.6 °F 30.01 in Calm   5.0 mph 70% 0.00 in
03:34 29.2 °F 20.6 °F 30.01 in North 1.0 mph 6.0 mph 70% 0.00 in
03:39 29.2 °F 20.6 °F 30.02 in NNW 4.0 mph 7.0 mph 70% 0.00 in
03:44 29.2 °F 20.6 °F 30.02 in NW 4.0 mph 8.0 mph 70% 0.00 in
03:49 29.1 °F 20.5 °F 30.02 in NNW 1.0 mph 8.0 mph 70% 0.00 in
03:54 29.1 °F 20.9 °F 30.02 in Calm   7.0 mph 71% 0.00 in
03:59 29.0 °F 20.4 °F 30.03 in NNW 2.0 mph 8.0 mph 70% 0.00 in
04:04 29.0 °F 20.4 °F 30.04 in NNW 4.0 mph 8.0 mph 70% 0.00 in
04:09 29.0 °F 20.4 °F 30.04 in NW 2.0 mph 8.0 mph 70% 0.00 in
04:14 28.9 °F 20.0 °F 30.04 in NW 5.0 mph 9.0 mph 69% 0.00 in
04:19 28.8 °F 19.9 °F 30.05 in NNW 2.0 mph 9.0 mph 69% 0.00 in
04:24 28.8 °F 19.6 °F 30.05 in NNW 6.0 mph 13.0 mph 68% 0.00 in
04:29 28.8 °F 19.9 °F 30.05 in NNW 1.0 mph 13.0 mph 69% 0.00 in
04:34 28.7 °F 19.8 °F 30.06 in NNW 1.0 mph 10.0 mph 69% 0.00 in
04:39 28.5 °F 19.6 °F 30.06 in NNW 1.0 mph 8.0 mph 69% 0.00 in
04:44 28.3 °F 19.8 °F 30.06 in NNW 4.0 mph 8.0 mph 70% 0.00 in
04:49 28.1 °F 19.9 °F 30.06 in NNW 1.0 mph 8.0 mph 71% 0.00 in
04:54 27.8 °F 19.6 °F 30.07 in North 1.0 mph 6.0 mph 71% 0.00 in
04:59 27.6 °F 19.8 °F 30.07 in NW 1.0 mph 5.0 mph 72% 0.00 in
05:04 27.4 °F 19.6 °F 30.08 in NNW 2.0 mph 10.0 mph 72% 0.00 in
05:09 27.3 °F 19.5 °F 30.07 in NNW 4.0 mph 10.0 mph 72% 0.00 in
05:14 27.2 °F 19.4 °F 30.08 in NNW 2.0 mph 10.0 mph 72% 0.00 in
05:19 27.2 °F 19.4 °F 30.09 in Calm   9.0 mph 72% 0.00 in
05:24 27.1 °F 19.6 °F 30.09 in NW 1.0 mph 9.0 mph 73% 0.00 in
05:34 26.9 °F 19.4 °F 30.10 in NW 1.0 mph 10.0 mph 73% 0.00 in
05:39 26.8 °F 19.3 °F 30.10 in Calm   10.0 mph 73% 0.00 in
05:44 26.7 °F 19.5 °F 30.11 in Calm   3.0 mph 74% 0.00 in
05:49 26.6 °F 19.4 °F 30.11 in Calm   6.0 mph 74% 0.00 in
05:54 26.5 °F 19.3 °F 30.11 in NNW 1.0 mph 6.0 mph 74% 0.00 in
05:59 26.4 °F 19.2 °F 30.12 in Calm   4.0 mph 74% 0.00 in
06:04 26.3 °F 19.1 °F 30.12 in Calm   4.0 mph 74% 0.00 in
06:09 26.2 °F 19.0 °F 30.12 in North 1.0 mph 6.0 mph 74% 0.00 in
06:14 26.1 °F 19.0 °F 30.13 in Calm   6.0 mph 74% 0.00 in
06:19 25.9 °F 19.1 °F 30.13 in Calm   4.0 mph 75% 0.00 in
06:24 25.9 °F 19.1 °F 30.13 in NNE 1.0 mph 7.0 mph 75% 0.00 in
06:29 25.7 °F 19.2 °F 30.13 in NNE 1.0 mph 7.0 mph 76% 0.00 in
06:34 25.6 °F 19.1 °F 30.14 in NE 1.0 mph 4.0 mph 76% 0.00 in
06:39 25.4 °F 18.9 °F 30.14 in Calm   4.0 mph 76% 0.00 in
06:44 25.2 °F 18.7 °F 30.14 in Calm     76% 0.00 in
06:49 24.9 °F 18.7 °F 30.14 in Calm   2.0 mph 77% 0.00 in
06:54 24.7 °F 18.5 °F 30.14 in Calm   3.0 mph 77% 0.00 in
06:59 24.6 °F 18.4 °F 30.15 in Calm   3.0 mph 77% 0.00 in
07:04 24.6 °F 18.7 °F 30.15 in Calm   1.0 mph 78% 0.00 in
07:09 24.7 °F 18.8 °F 30.15 in Calm   3.0 mph 78% 0.00 in
07:14 24.6 °F 18.7 °F 30.16 in Calm   3.0 mph 78% 0.00 in
07:19 24.5 °F 18.6 °F 30.16 in Calm   1.0 mph 78% 0.00 in
07:24 24.4 °F 18.5 °F 30.17 in Calm     78% 0.00 in
07:29 24.3 °F 18.4 °F 30.17 in Calm   3.0 mph 78% 0.00 in
07:34 24.1 °F 18.5 °F 30.17 in Calm   3.0 mph 79% 0.00 in
07:39 24.0 °F 18.7 °F 30.17 in Calm   5.0 mph 80% 0.00 in
07:44 24.0 °F 18.7 °F 30.18 in Calm   5.0 mph 80% 0.00 in
07:49 24.0 °F 18.7 °F 30.18 in Calm     80% 0.00 in
07:54 24.0 °F 18.7 °F 30.19 in Calm     80% 0.00 in
07:59 24.1 °F 19.1 °F 30.19 in NNE 1.0 mph 5.0 mph 81% 0.00 in
08:04 24.3 °F 19.3 °F 30.19 in Calm   5.0 mph 81% 0.00 in
08:09 24.4 °F 19.4 °F 30.19 in NNE 2.0 mph 6.0 mph 81% 0.00 in
08:14 24.7 °F 19.7 °F 30.19 in NNE 1.0 mph 8.0 mph 81% 0.00 in
08:19 24.9 °F 19.6 °F 30.19 in NNE 2.0 mph 8.0 mph 80% 0.00 in
08:24 25.0 °F 19.7 °F 30.19 in NE 2.0 mph 7.0 mph 80% 0.00 in
08:29 25.1 °F 19.5 °F 30.19 in NNW 1.0 mph 7.0 mph 79% 0.00 in
08:34 25.2 °F 19.6 °F 30.20 in NNE 1.0 mph 5.0 mph 79% 0.00 in
08:39 25.2 °F 19.6 °F 30.20 in Calm   5.0 mph 79% 0.00 in
08:44 25.3 °F 19.7 °F 30.21 in NNW 1.0 mph 5.0 mph 79% 0.00 in
08:49 25.6 °F 20.0 °F 30.21 in NNW 3.0 mph 9.0 mph 79% 0.00 in
08:54 26.0 °F 20.1 °F 30.22 in North 2.0 mph 11.0 mph 78% 0.00 in
08:59 26.2 °F 20.3 °F 30.22 in North 4.0 mph 11.0 mph 78% 0.00 in
09:04 26.6 °F 20.7 °F 30.22 in NNW 6.0 mph 14.0 mph 78% 0.00 in
09:09 27.1 °F 20.5 °F 30.22 in NNW 5.0 mph 14.0 mph 76% 0.00 in
09:14 27.5 °F 20.6 °F 30.22 in NNW 6.0 mph 13.0 mph 75% 0.00 in
09:19 27.8 °F 20.9 °F 30.22 in NNW 4.0 mph 11.0 mph 75% 0.00 in
09:24 28.4 °F 21.2 °F 30.22 in North 2.0 mph 11.0 mph 74% 0.00 in
09:29 29.0 °F 21.8 °F 30.22 in NW 3.0 mph 7.0 mph 74% 0.00 in
09:39 29.3 °F 21.1 °F 30.23 in NNE 2.0 mph 9.0 mph 71% 0.00 in
09:44 28.9 °F 21.0 °F 30.23 in NNW 2.0 mph 9.0 mph 72% 0.00 in
09:49 29.3 °F 21.4 °F 30.23 in NNW 2.0 mph 8.0 mph 72% 0.00 in
09:54 29.4 °F 21.2 °F 30.23 in North 1.0 mph 8.0 mph 71% 0.00 in
09:59 29.3 °F 21.1 °F 30.23 in NNW 3.0 mph 6.0 mph 71% 0.00 in
10:04 29.0 °F 20.4 °F 30.23 in NNW 3.0 mph 7.0 mph 70% 0.00 in
10:09 28.9 °F 20.7 °F 30.24 in NW 3.0 mph 7.0 mph 71% 0.00 in
10:14 29.1 °F 20.9 °F 30.24 in North 3.0 mph 8.0 mph 71% 0.00 in
10:19 29.2 °F 21.0 °F 30.23 in NNE 1.0 mph 8.0 mph 71% 0.00 in
10:24 29.1 °F 21.2 °F 30.23 in ENE 2.0 mph 7.0 mph 72% 0.00 in
10:29 29.4 °F 20.8 °F 30.23 in NE 3.0 mph 8.0 mph 70% 0.00 in
10:34 29.9 °F 22.0 °F 30.22 in North 1.0 mph 8.0 mph 72% 0.00 in
10:39 30.3 °F 21.0 °F 30.22 in NNE 2.0 mph 6.0 mph 68% 0.00 in
10:44 30.8 °F 21.8 °F 30.21 in Calm   6.0 mph 69% 0.00 in
10:49 30.9 °F 21.2 °F 30.21 in NE 1.0 mph 6.0 mph 67% 0.00 in
10:54 31.1 °F 21.4 °F 30.21 in Calm   6.0 mph 67% 0.00 in
10:59 31.3 °F 21.6 °F 30.21 in NNW 2.0 mph 5.0 mph 67% 0.00 in
11:04 31.6 °F 21.5 °F 30.21 in NNE 1.0 mph 5.0 mph 66% 0.00 in
11:09 31.7 °F 21.3 °F 30.20 in Calm   5.0 mph 65% 0.00 in
11:14 31.9 °F 21.8 °F 30.20 in North 2.0 mph 5.0 mph 66% 0.00 in
11:19 32.0 °F 21.9 °F 30.21 in NNW 1.0 mph 5.0 mph 66% 0.00 in
11:24 32.1 °F 21.7 °F 30.21 in NNW 1.0 mph 4.0 mph 65% 0.00 in
11:29 32.2 °F 22.1 °F 30.21 in NW 2.0 mph 6.0 mph 66% 0.00 in
11:34 32.4 °F 21.6 °F 30.20 in North 1.0 mph 6.0 mph 64% 0.00 in
11:39 32.3 °F 21.9 °F 30.20 in Calm   4.0 mph 65% 0.00 in
11:44 32.3 °F 21.5 °F 30.21 in NNW 3.0 mph 6.0 mph 64% 0.00 in
11:49 32.1 °F 20.2 °F 30.21 in NNW 3.0 mph 6.0 mph 61% 0.00 in
11:54 32.3 °F 21.1 °F 30.20 in Calm   5.0 mph 63% 0.00 in
11:59 32.4 °F 20.8 °F 30.20 in NNW 2.0 mph 5.0 mph 62% 0.00 in
12:04 32.8 °F 21.6 °F 30.20 in NW 1.0 mph 5.0 mph 63% 0.00 in
12:09 32.8 °F 20.8 °F 30.20 in NW 3.0 mph 6.0 mph 61% 0.00 in
12:14 32.5 °F 20.5 °F 30.20 in Calm   6.0 mph 61% 0.00 in
12:19 32.5 °F 21.3 °F 30.20 in NNW 1.0 mph 4.0 mph 63% 0.00 in
12:24 32.9 °F 20.9 °F 30.20 in NW 3.0 mph 5.0 mph 61% 0.00 in
12:29 33.0 °F 21.0 °F 30.20 in NW 5.0 mph 8.0 mph 61% 0.00 in
12:35 33.3 °F 21.3 °F 30.21 in NW 3.0 mph 8.0 mph 61% 0.00 in
12:44 33.4 °F 21.8 °F 30.20 in NW 3.0 mph 7.0 mph 62% 0.00 in
12:49 33.3 °F 21.7 °F 30.20 in NW 2.0 mph 7.0 mph 62% 0.00 in
12:54 33.1 °F 20.7 °F 30.20 in Calm   6.0 mph 60% 0.00 in
12:59 33.1 °F 20.7 °F 30.20 in NW 1.0 mph 4.0 mph 60% 0.00 in
13:04 33.3 °F 20.9 °F 30.20 in Calm   4.0 mph 60% 0.00 in
13:09 33.5 °F 21.1 °F 30.20 in North 1.0 mph 6.0 mph 60% 0.00 in
13:14 33.6 °F 21.6 °F 30.20 in Calm   6.0 mph 61% 0.00 in
13:19 34.0 °F 21.2 °F 30.20 in Calm   6.0 mph 59% 0.00 in
13:24 33.8 °F 20.6 °F 30.20 in Calm   4.0 mph 58% 0.00 in
13:29 33.7 °F 21.3 °F 30.21 in NNE 1.0 mph 5.0 mph 60% 0.00 in
13:34 34.1 °F 21.7 °F 30.20 in Calm   5.0 mph 60% 0.00 in
13:39 34.3 °F 21.5 °F 30.20 in NNE 1.0 mph 4.0 mph 59% 0.00 in
13:44 34.4 °F 21.6 °F 30.21 in NNE 1.0 mph 5.0 mph 59% 0.00 in
13:49 34.4 °F 21.2 °F 30.21 in NNE 3.0 mph 5.0 mph 58% 0.00 in
13:54 34.4 °F 22.0 °F 30.22 in Calm   5.0 mph 60% 0.00 in
13:59 34.4 °F 22.0 °F 30.22 in NNE 1.0 mph 4.0 mph 60% 0.00 in
14:04 34.4 °F 22.0 °F 30.22 in NNE 1.0 mph 5.0 mph 60% 0.00 in
14:09 34.4 °F 22.0 °F 30.21 in Calm   5.0 mph 60% 0.00 in
14:14 34.5 °F 22.4 °F 30.21 in NNE 1.0 mph 5.0 mph 61% 0.00 in
14:19 34.6 °F 22.1 °F 30.22 in NNE 1.0 mph 5.0 mph 60% 0.00 in
14:24 34.5 °F 22.0 °F 30.21 in NNE 1.0 mph 7.0 mph 60% 0.00 in
14:29 34.5 °F 22.0 °F 30.21 in Calm   7.0 mph 60% 0.00 in
14:34 34.4 °F 22.0 °F 30.21 in Calm   6.0 mph 60% 0.00 in
14:39 34.2 °F 22.2 °F 30.21 in Calm   6.0 mph 61% 0.00 in
14:44 34.0 °F 22.0 °F 30.21 in NNE 2.0 mph 6.0 mph 61% 0.00 in
14:49 33.7 °F 22.1 °F 30.22 in Calm   6.0 mph 62% 0.00 in
14:54 33.4 °F 22.2 °F 30.22 in Calm   5.0 mph 63% 0.00 in
14:59 33.2 °F 21.6 °F 30.22 in NNE 3.0 mph 6.0 mph 62% 0.00 in
15:04 33.0 °F 21.8 °F 30.23 in Calm   6.0 mph 63% 0.00 in
15:09 32.8 °F 22.0 °F 30.22 in Calm   3.0 mph 64% 0.00 in
15:14 32.7 °F 21.9 °F 30.22 in Calm   3.0 mph 64% 0.00 in
15:19 32.4 °F 21.6 °F 30.22 in Calm   4.0 mph 64% 0.00 in
15:24 32.0 °F 21.2 °F 30.22 in NNE 2.0 mph 5.0 mph 64% 0.00 in
15:34 31.2 °F 21.2 °F 30.22 in Calm   6.0 mph 66% 0.00 in
15:39 31.1 °F 21.4 °F 30.22 in Calm   2.0 mph 67% 0.00 in
15:44 31.0 °F 21.7 °F 30.22 in Calm   1.0 mph 68% 0.00 in
15:49 30.8 °F 21.5 °F 30.22 in NNE 1.0 mph 4.0 mph 68% 0.00 in
15:54 30.5 °F 21.5 °F 30.22 in Calm   4.0 mph 69% 0.00 in
15:59 30.2 °F 21.6 °F 30.22 in Calm     70% 0.00 in
16:04 29.8 °F 21.2 °F 30.22 in NNE 1.0 mph 4.0 mph 70% 0.00 in
16:09 29.5 °F 21.3 °F 30.23 in Calm   4.0 mph 71% 0.01 in
16:14 29.2 °F 21.0 °F 30.23 in NNE 1.0 mph 3.0 mph 71% 0.01 in
16:19 28.9 °F 21.0 °F 30.23 in Calm   5.0 mph 72% 0.01 in
16:24 28.7 °F 21.1 °F 30.23 in Calm   5.0 mph 73% 0.01 in
16:29 28.4 °F 21.2 °F 30.23 in Calm   5.0 mph 74% 0.01 in
16:34 28.2 °F 21.0 °F 30.24 in Calm   5.0 mph 74% 0.01 in
16:39 28.0 °F 20.8 °F 30.24 in NNE 1.0 mph 4.0 mph 74% 0.01 in
16:44 28.0 °F 21.1 °F 30.24 in NNE 1.0 mph 4.0 mph 75% 0.01 in
16:54 27.8 °F 20.9 °F 30.24 in NNE 1.0 mph 5.0 mph 75% 0.01 in
16:59 27.7 °F 20.8 °F 30.24 in NNE 1.0 mph 5.0 mph 75% 0.01 in
17:04 27.6 °F 20.7 °F 30.24 in NNE 2.0 mph 7.0 mph 75% 0.01 in
17:09 27.5 °F 20.9 °F 30.24 in NNE 2.0 mph 7.0 mph 76% 0.01 in
17:14 27.3 °F 20.7 °F 30.25 in NNE 1.0 mph 6.0 mph 76% 0.01 in
17:19 27.2 °F 20.9 °F 30.25 in Calm   4.0 mph 77% 0.01 in
17:24 27.0 °F 20.8 °F 30.25 in Calm   4.0 mph 77% 0.01 in
17:29 26.8 °F 20.6 °F 30.26 in Calm   4.0 mph 77% 0.01 in
17:34 26.7 °F 20.5 °F 30.26 in Calm   3.0 mph 77% 0.01 in
17:39 26.6 °F 20.7 °F 30.26 in Calm   4.0 mph 78% 0.01 in
17:44 26.5 °F 20.6 °F 30.26 in Calm   4.0 mph 78% 0.01 in
17:49 26.4 °F 20.5 °F 30.26 in Calm   3.0 mph 78% 0.01 in
17:54 26.3 °F 20.7 °F 30.26 in Calm   3.0 mph 79% 0.01 in
17:59 26.3 °F 20.7 °F 30.26 in Calm   1.0 mph 79% 0.01 in
18:04 26.2 °F 20.6 °F 30.26 in Calm   1.0 mph 79% 0.01 in
18:09 26.2 °F 20.6 °F 30.26 in Calm   3.0 mph 79% 0.01 in
18:14 26.1 °F 20.5 °F 30.26 in Calm   3.0 mph 79% 0.01 in
18:19 25.9 °F 20.3 °F 30.27 in Calm     79% 0.01 in
18:24 25.7 °F 20.4 °F 30.27 in Calm     80% 0.01 in
18:29 25.6 °F 20.3 °F 30.27 in Calm     80% 0.01 in
18:39 25.3 °F 20.3 °F 30.27 in Calm     81% 0.01 in
18:44 25.3 °F 20.3 °F 30.27 in Calm   1.0 mph 81% 0.01 in
18:49 25.2 °F 20.2 °F 30.27 in Calm   1.0 mph 81% 0.01 in
18:54 25.1 °F 20.1 °F 30.27 in Calm     81% 0.01 in
18:59 25.0 °F 20.0 °F 30.27 in Calm     81% 0.01 in
19:04 24.8 °F 20.1 °F 30.27 in Calm     82% 0.01 in
19:09 24.7 °F 20.0 °F 30.27 in Calm     82% 0.01 in
19:14 24.5 °F 19.8 °F 30.27 in Calm     82% 0.01 in
19:19 24.4 °F 19.7 °F 30.27 in Calm     82% 0.01 in
19:24 24.2 °F 19.5 °F 30.27 in Calm     82% 0.01 in
19:29 24.1 °F 19.7 °F 30.27 in Calm     83% 0.01 in
19:34 24.0 °F 19.6 °F 30.27 in Calm     83% 0.01 in
19:39 24.1 °F 19.7 °F 30.27 in Calm     83% 0.01 in
19:44 24.1 °F 19.7 °F 30.27 in Calm     83% 0.01 in
19:49 24.1 °F 20.0 °F 30.27 in Calm     84% 0.01 in
19:54 24.2 °F 20.1 °F 30.27 in Calm     84% 0.01 in
19:59 24.3 °F 20.2 °F 30.28 in Calm     84% 0.01 in
20:04 24.4 °F 20.3 °F 30.28 in Calm     84% 0.01 in
20:09 24.5 °F 20.6 °F 30.27 in Calm     85% 0.01 in
20:14 24.6 °F 20.7 °F 30.27 in Calm     85% 0.01 in
20:19 24.6 °F 20.7 °F 30.27 in Calm     85% 0.01 in
20:24 24.7 °F 20.8 °F 30.27 in Calm     85% 0.01 in
20:29 24.8 °F 20.7 °F 30.26 in Calm   2.0 mph 84% 0.01 in
20:34 25.0 °F 20.9 °F 30.27 in Calm   3.0 mph 84% 0.01 in
20:39 25.2 °F 21.0 °F 30.27 in Calm   3.0 mph 84% 0.01 in
20:44 25.3 °F 21.1 °F 30.27 in Calm   3.0 mph 84% 0.01 in
20:49 25.6 °F 21.4 °F 30.27 in Calm   2.0 mph 84% 0.01 in
20:54 25.6 °F 21.2 °F 30.27 in Calm   2.0 mph 83% 0.01 in
20:59 25.6 °F 21.2 °F 30.27 in Calm   1.0 mph 83% 0.01 in
21:04 25.5 °F 21.1 °F 30.27 in Calm     83% 0.01 in
21:09 25.4 °F 21.0 °F 30.27 in Calm     83% 0.01 in
21:14 25.2 °F 20.8 °F 30.27 in Calm     83% 0.01 in
21:19 25.2 °F 20.8 °F 30.27 in Calm     83% 0.01 in
21:29 25.2 °F 21.0 °F 30.27 in Calm     84% 0.01 in
21:35 25.1 °F 21.0 °F 30.27 in Calm     84% 0.01 in
21:44 25.1 °F 21.0 °F 30.27 in Calm     84% 0.01 in
21:49 25.2 °F 21.3 °F 30.27 in Calm     85% 0.01 in
21:54 25.3 °F 21.4 °F 30.27 in Calm     85% 0.01 in
21:59 25.3 °F 21.4 °F 30.27 in Calm     85% 0.01 in
22:04 25.4 °F 21.5 °F 30.27 in Calm     85% 0.01 in
22:09 25.6 °F 22.0 °F 30.27 in Calm     86% 0.01 in
22:14 25.7 °F 22.1 °F 30.27 in Calm     86% 0.01 in
22:19 25.8 °F 21.9 °F 30.27 in Calm     85% 0.01 in
22:24 26.0 °F 22.1 °F 30.27 in Calm     85% 0.01 in
22:29 26.1 °F 22.2 °F 30.27 in Calm     85% 0.01 in
22:34 26.2 °F 22.3 °F 30.27 in Calm     85% 0.01 in
22:39 26.4 °F 22.5 °F 30.27 in Calm     85% 0.01 in
22:44 26.5 °F 22.6 °F 30.27 in Calm     85% 0.01 in
22:49 26.7 °F 22.8 °F 30.27 in Calm     85% 0.01 in
22:54 26.8 °F 22.9 °F 30.27 in Calm     85% 0.01 in
22:59 26.9 °F 23.0 °F 30.26 in Calm     85% 0.01 in
23:04 27.1 °F 23.2 °F 30.26 in Calm   1.0 mph 85% 0.01 in
23:09 27.2 °F 23.0 °F 30.27 in NNE 1.0 mph 3.0 mph 84% 0.01 in
23:14 27.4 °F 22.6 °F 30.26 in South 2.0 mph 7.0 mph 82% 0.01 in
23:19 27.6 °F 22.5 °F 30.26 in South 3.0 mph 7.0 mph 81% 0.01 in
23:24 27.8 °F 22.1 °F 30.25 in SSW 4.0 mph 9.0 mph 79% 0.01 in
23:29 27.7 °F 22.0 °F 30.26 in SSW 4.0 mph 9.0 mph 79% 0.01 in
23:34 27.7 °F 21.7 °F 30.25 in SSW 6.0 mph 9.0 mph 78% 0.01 in
23:39 27.6 °F 21.6 °F 30.26 in South 4.0 mph 9.0 mph 78% 0.01 in
23:44 27.5 °F 21.5 °F 30.25 in SSW 5.0 mph 9.0 mph 78% 0.01 in
23:49 27.6 °F 21.6 °F 30.25 in SSW 3.0 mph 8.0 mph 78% 0.01 in
23:54 27.9 °F 21.9 °F 30.25 in SSW 4.0 mph 7.0 mph 78% 0.01 in
23:59 28.1 °F 22.1 °F 30.25 in SSW 4.0 mph 7.0 mph 78% 0.01 in
Westford Weather
Compliments of Weather Underground

 
 
Current Radar Loop:

Copyright © WestfordWeather.net 2007-2014. All rights reserved.